sensor_id;sensor_type;location;lat;lon;timestamp;P1;durP1;ratioP1;P2;durP2;ratioP2
60975;SDS011;46849;48.154;17.042;2022-11-09T00:01:12;34.50;;;18.33;;
60975;SDS011;46849;48.154;17.042;2022-11-09T00:03:57;24.02;;;13.63;;
60975;SDS011;46849;48.154;17.042;2022-11-09T00:06:43;29.95;;;16.13;;
60975;SDS011;46849;48.154;17.042;2022-11-09T00:09:28;27.27;;;15.10;;
60975;SDS011;46849;48.154;17.042;2022-11-09T00:12:12;28.55;;;16.55;;
60975;SDS011;46849;48.154;17.042;2022-11-09T00:14:57;30.67;;;14.57;;
60975;SDS011;46849;48.154;17.042;2022-11-09T00:17:42;24.85;;;13.82;;
60975;SDS011;46849;48.154;17.042;2022-11-09T00:20:26;29.88;;;14.95;;
60975;SDS011;46849;48.154;17.042;2022-11-09T00:23:11;27.33;;;14.93;;
60975;SDS011;46849;48.154;17.042;2022-11-09T00:25:59;29.17;;;17.10;;
60975;SDS011;46849;48.154;17.042;2022-11-09T00:28:47;29.75;;;16.17;;
60975;SDS011;46849;48.154;17.042;2022-11-09T00:31:33;30.88;;;15.90;;
60975;SDS011;46849;48.154;17.042;2022-11-09T00:34:19;26.15;;;14.13;;
60975;SDS011;46849;48.154;17.042;2022-11-09T00:37:04;27.25;;;15.32;;
60975;SDS011;46849;48.154;17.042;2022-11-09T00:39:48;32.45;;;17.85;;
60975;SDS011;46849;48.154;17.042;2022-11-09T00:42:33;29.08;;;14.85;;
60975;SDS011;46849;48.154;17.042;2022-11-09T00:45:18;25.67;;;14.30;;
60975;SDS011;46849;48.154;17.042;2022-11-09T00:48:03;31.17;;;16.80;;
60975;SDS011;46849;48.154;17.042;2022-11-09T00:50:51;27.63;;;15.50;;
60975;SDS011;46849;48.154;17.042;2022-11-09T00:53:37;32.28;;;16.60;;
60975;SDS011;46849;48.154;17.042;2022-11-09T00:56:22;33.15;;;17.25;;
60975;SDS011;46849;48.154;17.042;2022-11-09T00:59:09;33.70;;;17.92;;
60975;SDS011;46849;48.154;17.042;2022-11-09T01:01:56;30.50;;;17.10;;
60975;SDS011;46849;48.154;17.042;2022-11-09T01:04:40;27.40;;;15.50;;
60975;SDS011;46849;48.154;17.042;2022-11-09T01:07:25;36.65;;;18.98;;
60975;SDS011;46849;48.154;17.042;2022-11-09T01:10:10;26.33;;;14.82;;
60975;SDS011;46849;48.154;17.042;2022-11-09T01:12:55;30.42;;;16.27;;
60975;SDS011;46849;48.154;17.042;2022-11-09T01:16:14;26.63;;;14.60;;
60975;SDS011;46849;48.154;17.042;2022-11-09T01:18:54;29.15;;;16.50;;
60975;SDS011;46849;48.154;17.042;2022-11-09T01:21:41;32.08;;;16.17;;
60975;SDS011;46849;48.154;17.042;2022-11-09T01:24:26;29.63;;;16.23;;
60975;SDS011;46849;48.154;17.042;2022-11-09T01:27:13;27.55;;;14.93;;
60975;SDS011;46849;48.154;17.042;2022-11-09T01:29:58;30.27;;;15.27;;
60975;SDS011;46849;48.154;17.042;2022-11-09T01:32:43;29.75;;;15.80;;
60975;SDS011;46849;48.154;17.042;2022-11-09T01:35:28;27.70;;;16.60;;
60975;SDS011;46849;48.154;17.042;2022-11-09T01:38:13;32.38;;;17.17;;
60975;SDS011;46849;48.154;17.042;2022-11-09T01:40:58;28.80;;;15.73;;
60975;SDS011;46849;48.154;17.042;2022-11-09T01:43:42;27.60;;;15.20;;
60975;SDS011;46849;48.154;17.042;2022-11-09T01:49:52;33.95;;;17.10;;
60975;SDS011;46849;48.154;17.042;2022-11-09T01:52:41;35.08;;;17.50;;
60975;SDS011;46849;48.154;17.042;2022-11-09T01:55:29;30.10;;;16.00;;
60975;SDS011;46849;48.154;17.042;2022-11-09T01:58:15;28.50;;;16.63;;
60975;SDS011;46849;48.154;17.042;2022-11-09T02:01:05;30.02;;;15.50;;
60975;SDS011;46849;48.154;17.042;2022-11-09T02:07:12;27.58;;;16.35;;
60975;SDS011;46849;48.154;17.042;2022-11-09T02:10:02;33.10;;;16.13;;
60975;SDS011;46849;48.154;17.042;2022-11-09T02:12:50;31.67;;;17.23;;
60975;SDS011;46849;48.154;17.042;2022-11-09T02:15:36;31.42;;;17.80;;
60975;SDS011;46849;48.154;17.042;2022-11-09T02:18:20;27.88;;;14.95;;
60975;SDS011;46849;48.154;17.042;2022-11-09T02:21:05;29.60;;;15.38;;
60975;SDS011;46849;48.154;17.042;2022-11-09T02:23:50;27.80;;;16.70;;
60975;SDS011;46849;48.154;17.042;2022-11-09T02:26:49;31.50;;;15.57;;
60975;SDS011;46849;48.154;17.042;2022-11-09T02:29:37;28.73;;;16.27;;
60975;SDS011;46849;48.154;17.042;2022-11-09T02:32:27;29.58;;;15.75;;
60975;SDS011;46849;48.154;17.042;2022-11-09T02:35:14;31.48;;;16.27;;
60975;SDS011;46849;48.154;17.042;2022-11-09T02:37:59;30.65;;;16.88;;
60975;SDS011;46849;48.154;17.042;2022-11-09T02:40:44;30.48;;;17.15;;
60975;SDS011;46849;48.154;17.042;2022-11-09T02:43:33;27.42;;;15.18;;
60975;SDS011;46849;48.154;17.042;2022-11-09T02:46:23;27.88;;;14.45;;
60975;SDS011;46849;48.154;17.042;2022-11-09T02:49:10;33.85;;;17.83;;
60975;SDS011;46849;48.154;17.042;2022-11-09T02:51:54;27.08;;;13.93;;
60975;SDS011;46849;48.154;17.042;2022-11-09T02:54:39;33.60;;;18.33;;
60975;SDS011;46849;48.154;17.042;2022-11-09T02:57:24;29.48;;;14.88;;
60975;SDS011;46849;48.154;17.042;2022-11-09T03:00:09;27.83;;;15.38;;
60975;SDS011;46849;48.154;17.042;2022-11-09T03:02:55;28.95;;;15.05;;
60975;SDS011;46849;48.154;17.042;2022-11-09T03:05:40;26.67;;;15.35;;
60975;SDS011;46849;48.154;17.042;2022-11-09T03:08:28;28.65;;;15.55;;
60975;SDS011;46849;48.154;17.042;2022-11-09T03:11:13;29.88;;;16.17;;
60975;SDS011;46849;48.154;17.042;2022-11-09T03:13:57;25.45;;;14.90;;
60975;SDS011;46849;48.154;17.042;2022-11-09T03:16:42;28.52;;;15.38;;
60975;SDS011;46849;48.154;17.042;2022-11-09T03:19:27;27.95;;;15.25;;
60975;SDS011;46849;48.154;17.042;2022-11-09T03:22:12;26.80;;;14.57;;
60975;SDS011;46849;48.154;17.042;2022-11-09T03:24:56;29.63;;;14.73;;
60975;SDS011;46849;48.154;17.042;2022-11-09T03:27:41;28.77;;;15.63;;
60975;SDS011;46849;48.154;17.042;2022-11-09T03:30:26;26.33;;;13.68;;
60975;SDS011;46849;48.154;17.042;2022-11-09T03:33:11;27.13;;;15.25;;
60975;SDS011;46849;48.154;17.042;2022-11-09T03:35:58;31.33;;;15.95;;
60975;SDS011;46849;48.154;17.042;2022-11-09T03:38:43;24.88;;;14.35;;
60975;SDS011;46849;48.154;17.042;2022-11-09T03:41:28;26.55;;;14.30;;
60975;SDS011;46849;48.154;17.042;2022-11-09T03:44:13;27.13;;;14.63;;
60975;SDS011;46849;48.154;17.042;2022-11-09T03:46:57;28.05;;;15.05;;
60975;SDS011;46849;48.154;17.042;2022-11-09T03:49:42;29.55;;;15.80;;
60975;SDS011;46849;48.154;17.042;2022-11-09T03:52:27;29.42;;;17.08;;
60975;SDS011;46849;48.154;17.042;2022-11-09T03:55:12;29.35;;;14.52;;
60975;SDS011;46849;48.154;17.042;2022-11-09T03:57:58;25.52;;;14.35;;
60975;SDS011;46849;48.154;17.042;2022-11-09T04:00:42;25.17;;;14.10;;
60975;SDS011;46849;48.154;17.042;2022-11-09T04:03:27;26.25;;;14.82;;
60975;SDS011;46849;48.154;17.042;2022-11-09T04:06:12;27.17;;;13.95;;
60975;SDS011;46849;48.154;17.042;2022-11-09T04:08:57;24.25;;;13.43;;
60975;SDS011;46849;48.154;17.042;2022-11-09T04:11:41;29.58;;;15.60;;
60975;SDS011;46849;48.154;17.042;2022-11-09T04:14:26;29.35;;;15.40;;
60975;SDS011;46849;48.154;17.042;2022-11-09T04:17:11;23.23;;;13.27;;
60975;SDS011;46849;48.154;17.042;2022-11-09T04:19:55;23.10;;;12.85;;
60975;SDS011;46849;48.154;17.042;2022-11-09T04:22:40;25.98;;;14.60;;
60975;SDS011;46849;48.154;17.042;2022-11-09T04:25:25;26.88;;;14.82;;
60975;SDS011;46849;48.154;17.042;2022-11-09T04:28:11;25.58;;;14.05;;
60975;SDS011;46849;48.154;17.042;2022-11-09T04:30:58;26.08;;;13.63;;
60975;SDS011;46849;48.154;17.042;2022-11-09T04:33:47;26.50;;;14.25;;
60975;SDS011;46849;48.154;17.042;2022-11-09T04:36:33;22.35;;;12.80;;
60975;SDS011;46849;48.154;17.042;2022-11-09T04:39:17;29.65;;;14.77;;
60975;SDS011;46849;48.154;17.042;2022-11-09T04:42:02;23.20;;;12.98;;
60975;SDS011;46849;48.154;17.042;2022-11-09T04:44:47;28.23;;;15.05;;
60975;SDS011;46849;48.154;17.042;2022-11-09T04:47:32;22.95;;;12.82;;
60975;SDS011;46849;48.154;17.042;2022-11-09T04:50:17;25.48;;;13.70;;
60975;SDS011;46849;48.154;17.042;2022-11-09T04:53:05;24.83;;;13.13;;
60975;SDS011;46849;48.154;17.042;2022-11-09T04:55:58;24.55;;;13.05;;
60975;SDS011;46849;48.154;17.042;2022-11-09T04:58:43;24.90;;;14.57;;
60975;SDS011;46849;48.154;17.042;2022-11-09T05:01:28;30.17;;;14.68;;
60975;SDS011;46849;48.154;17.042;2022-11-09T05:04:12;25.73;;;13.90;;
60975;SDS011;46849;48.154;17.042;2022-11-09T05:06:57;23.67;;;12.60;;
60975;SDS011;46849;48.154;17.042;2022-11-09T05:09:41;27.00;;;13.95;;
60975;SDS011;46849;48.154;17.042;2022-11-09T05:12:26;39.00;;;17.88;;
60975;SDS011;46849;48.154;17.042;2022-11-09T05:15:11;37.78;;;18.70;;
60975;SDS011;46849;48.154;17.042;2022-11-09T05:17:56;42.63;;;20.23;;
60975;SDS011;46849;48.154;17.042;2022-11-09T05:20:40;42.97;;;20.17;;
60975;SDS011;46849;48.154;17.042;2022-11-09T05:23:25;39.15;;;18.55;;
60975;SDS011;46849;48.154;17.042;2022-11-09T05:26:31;39.15;;;18.85;;
60975;SDS011;46849;48.154;17.042;2022-11-09T05:29:17;38.90;;;19.13;;
60975;SDS011;46849;48.154;17.042;2022-11-09T05:32:01;42.38;;;19.17;;
60975;SDS011;46849;48.154;17.042;2022-11-09T05:34:46;45.13;;;21.60;;
60975;SDS011;46849;48.154;17.042;2022-11-09T05:37:31;43.63;;;21.02;;
60975;SDS011;46849;48.154;17.042;2022-11-09T05:40:17;42.63;;;19.58;;
60975;SDS011;46849;48.154;17.042;2022-11-09T05:43:02;42.42;;;19.77;;
60975;SDS011;46849;48.154;17.042;2022-11-09T05:45:47;41.05;;;19.45;;
60975;SDS011;46849;48.154;17.042;2022-11-09T05:48:32;47.53;;;21.25;;
60975;SDS011;46849;48.154;17.042;2022-11-09T05:51:17;45.80;;;20.92;;
60975;SDS011;46849;48.154;17.042;2022-11-09T05:54:02;42.13;;;19.42;;
60975;SDS011;46849;48.154;17.042;2022-11-09T05:56:47;47.28;;;21.40;;
60975;SDS011;46849;48.154;17.042;2022-11-09T05:59:32;44.40;;;21.05;;
60975;SDS011;46849;48.154;17.042;2022-11-09T06:02:16;41.85;;;18.83;;
60975;SDS011;46849;48.154;17.042;2022-11-09T06:05:01;41.22;;;20.65;;
60975;SDS011;46849;48.154;17.042;2022-11-09T06:07:46;42.97;;;20.77;;
60975;SDS011;46849;48.154;17.042;2022-11-09T06:10:31;47.38;;;22.35;;
60975;SDS011;46849;48.154;17.042;2022-11-09T06:13:16;45.72;;;22.08;;
60975;SDS011;46849;48.154;17.042;2022-11-09T06:16:01;47.30;;;23.70;;
60975;SDS011;46849;48.154;17.042;2022-11-09T06:18:47;49.97;;;22.55;;
60975;SDS011;46849;48.154;17.042;2022-11-09T06:21:31;49.75;;;22.35;;
60975;SDS011;46849;48.154;17.042;2022-11-09T06:24:16;42.63;;;20.20;;
60975;SDS011;46849;48.154;17.042;2022-11-09T06:27:01;45.83;;;21.65;;
60975;SDS011;46849;48.154;17.042;2022-11-09T06:29:46;48.47;;;22.15;;
60975;SDS011;46849;48.154;17.042;2022-11-09T06:32:30;46.22;;;22.50;;
60975;SDS011;46849;48.154;17.042;2022-11-09T06:35:15;45.92;;;22.20;;
60975;SDS011;46849;48.154;17.042;2022-11-09T06:38:00;47.05;;;22.50;;
60975;SDS011;46849;48.154;17.042;2022-11-09T06:40:44;43.95;;;21.67;;
60975;SDS011;46849;48.154;17.042;2022-11-09T06:43:29;47.75;;;21.77;;
60975;SDS011;46849;48.154;17.042;2022-11-09T06:46:14;44.88;;;20.48;;
60975;SDS011;46849;48.154;17.042;2022-11-09T06:49:01;48.47;;;23.13;;
60975;SDS011;46849;48.154;17.042;2022-11-09T06:51:46;41.22;;;20.05;;
60975;SDS011;46849;48.154;17.042;2022-11-09T06:54:31;46.42;;;21.58;;
60975;SDS011;46849;48.154;17.042;2022-11-09T06:57:17;46.40;;;21.13;;
60975;SDS011;46849;48.154;17.042;2022-11-09T07:00:02;46.88;;;21.15;;
60975;SDS011;46849;48.154;17.042;2022-11-09T07:02:49;48.53;;;21.27;;
60975;SDS011;46849;48.154;17.042;2022-11-09T07:05:37;42.20;;;20.13;;
60975;SDS011;46849;48.154;17.042;2022-11-09T07:08:23;46.95;;;22.08;;
60975;SDS011;46849;48.154;17.042;2022-11-09T07:11:09;42.95;;;20.48;;
60975;SDS011;46849;48.154;17.042;2022-11-09T07:13:55;42.22;;;19.83;;
60975;SDS011;46849;48.154;17.042;2022-11-09T07:16:40;44.10;;;20.38;;
60975;SDS011;46849;48.154;17.042;2022-11-09T07:19:24;43.70;;;20.00;;
60975;SDS011;46849;48.154;17.042;2022-11-09T07:22:12;42.58;;;19.55;;
60975;SDS011;46849;48.154;17.042;2022-11-09T07:24:57;42.08;;;22.00;;
60975;SDS011;46849;48.154;17.042;2022-11-09T07:27:41;44.53;;;20.90;;
60975;SDS011;46849;48.154;17.042;2022-11-09T07:30:26;39.83;;;19.00;;
60975;SDS011;46849;48.154;17.042;2022-11-09T07:33:11;45.72;;;20.50;;
60975;SDS011;46849;48.154;17.042;2022-11-09T07:35:58;44.65;;;21.58;;
60975;SDS011;46849;48.154;17.042;2022-11-09T07:38:44;44.70;;;21.38;;
60975;SDS011;46849;48.154;17.042;2022-11-09T07:41:29;43.33;;;20.90;;
60975;SDS011;46849;48.154;17.042;2022-11-09T07:44:14;40.85;;;19.30;;
60975;SDS011;46849;48.154;17.042;2022-11-09T07:47:01;42.08;;;19.10;;
60975;SDS011;46849;48.154;17.042;2022-11-09T07:49:46;44.70;;;20.35;;
60975;SDS011;46849;48.154;17.042;2022-11-09T07:52:30;42.17;;;18.75;;
60975;SDS011;46849;48.154;17.042;2022-11-09T07:55:15;41.05;;;19.15;;
60975;SDS011;46849;48.154;17.042;2022-11-09T07:58:04;39.67;;;18.92;;
60975;SDS011;46849;48.154;17.042;2022-11-09T08:00:50;41.47;;;19.05;;
60975;SDS011;46849;48.154;17.042;2022-11-09T08:03:36;37.22;;;19.65;;
60975;SDS011;46849;48.154;17.042;2022-11-09T08:06:20;41.60;;;20.92;;
60975;SDS011;46849;48.154;17.042;2022-11-09T08:09:07;40.15;;;19.38;;
60975;SDS011;46849;48.154;17.042;2022-11-09T08:11:52;39.63;;;19.30;;
60975;SDS011;46849;48.154;17.042;2022-11-09T08:14:37;36.85;;;19.05;;
60975;SDS011;46849;48.154;17.042;2022-11-09T08:17:21;37.33;;;18.98;;
60975;SDS011;46849;48.154;17.042;2022-11-09T08:20:06;40.42;;;20.63;;
60975;SDS011;46849;48.154;17.042;2022-11-09T08:22:51;37.33;;;19.65;;
60975;SDS011;46849;48.154;17.042;2022-11-09T08:25:36;41.72;;;20.15;;
60975;SDS011;46849;48.154;17.042;2022-11-09T08:28:20;37.17;;;18.75;;
60975;SDS011;46849;48.154;17.042;2022-11-09T08:31:06;42.20;;;19.75;;
60975;SDS011;46849;48.154;17.042;2022-11-09T08:33:51;42.83;;;21.25;;
60975;SDS011;46849;48.154;17.042;2022-11-09T08:36:35;43.65;;;20.75;;
60975;SDS011;46849;48.154;17.042;2022-11-09T08:39:19;42.17;;;19.58;;
60975;SDS011;46849;48.154;17.042;2022-11-09T08:42:07;37.45;;;20.25;;
60975;SDS011;46849;48.154;17.042;2022-11-09T08:44:51;41.50;;;20.05;;
60975;SDS011;46849;48.154;17.042;2022-11-09T08:47:36;38.47;;;19.30;;
60975;SDS011;46849;48.154;17.042;2022-11-09T08:50:24;42.92;;;21.52;;
60975;SDS011;46849;48.154;17.042;2022-11-09T08:53:09;41.40;;;19.90;;
60975;SDS011;46849;48.154;17.042;2022-11-09T08:55:54;39.65;;;20.58;;
60975;SDS011;46849;48.154;17.042;2022-11-09T08:58:40;40.38;;;20.42;;
60975;SDS011;46849;48.154;17.042;2022-11-09T09:01:24;39.90;;;19.80;;
60975;SDS011;46849;48.154;17.042;2022-11-09T09:04:09;42.30;;;20.65;;
60975;SDS011;46849;48.154;17.042;2022-11-09T09:06:54;39.55;;;19.83;;
60975;SDS011;46849;48.154;17.042;2022-11-09T09:09:39;49.17;;;23.42;;
60975;SDS011;46849;48.154;17.042;2022-11-09T09:12:24;47.75;;;21.48;;
60975;SDS011;46849;48.154;17.042;2022-11-09T09:15:08;45.35;;;21.95;;
60975;SDS011;46849;48.154;17.042;2022-11-09T09:17:53;47.22;;;22.55;;
60975;SDS011;46849;48.154;17.042;2022-11-09T09:20:38;44.22;;;22.05;;
60975;SDS011;46849;48.154;17.042;2022-11-09T09:23:22;48.30;;;23.60;;
60975;SDS011;46849;48.154;17.042;2022-11-09T09:26:07;40.97;;;21.38;;
60975;SDS011;46849;48.154;17.042;2022-11-09T09:28:51;44.28;;;22.25;;
60975;SDS011;46849;48.154;17.042;2022-11-09T09:31:36;44.25;;;23.23;;
60975;SDS011;46849;48.154;17.042;2022-11-09T09:34:20;43.05;;;23.33;;
60975;SDS011;46849;48.154;17.042;2022-11-09T09:37:05;46.03;;;22.85;;
60975;SDS011;46849;48.154;17.042;2022-11-09T09:39:50;43.42;;;22.77;;
60975;SDS011;46849;48.154;17.042;2022-11-09T09:42:35;42.63;;;21.98;;
60975;SDS011;46849;48.154;17.042;2022-11-09T09:45:27;51.30;;;23.15;;
60975;SDS011;46849;48.154;17.042;2022-11-09T09:48:26;46.17;;;23.30;;
60975;SDS011;46849;48.154;17.042;2022-11-09T09:51:17;44.67;;;22.42;;
60975;SDS011;46849;48.154;17.042;2022-11-09T09:54:10;43.08;;;21.88;;
60975;SDS011;46849;48.154;17.042;2022-11-09T09:57:00;52.42;;;23.63;;
60975;SDS011;46849;48.154;17.042;2022-11-09T09:59:52;43.13;;;20.83;;
60975;SDS011;46849;48.154;17.042;2022-11-09T10:02:39;42.35;;;21.80;;
60975;SDS011;46849;48.154;17.042;2022-11-09T10:05:26;41.72;;;22.15;;
60975;SDS011;46849;48.154;17.042;2022-11-09T10:08:46;45.53;;;21.42;;
60975;SDS011;46849;48.154;17.042;2022-11-09T10:21:22;44.40;;;22.25;;
60975;SDS011;46849;48.154;17.042;2022-11-09T10:27:27;40.72;;;21.48;;
60975;SDS011;46849;48.154;17.042;2022-11-09T10:30:20;42.58;;;22.67;;
60975;SDS011;46849;48.154;17.042;2022-11-09T10:38:39;43.58;;;22.02;;
60975;SDS011;46849;48.154;17.042;2022-11-09T10:41:46;41.97;;;21.10;;
60975;SDS011;46849;48.154;17.042;2022-11-09T10:44:50;40.72;;;21.00;;
60975;SDS011;46849;48.154;17.042;2022-11-09T10:47:53;38.78;;;20.83;;
60975;SDS011;46849;48.154;17.042;2022-11-09T10:50:56;43.08;;;21.52;;
60975;SDS011;46849;48.154;17.042;2022-11-09T10:54:14;40.05;;;20.88;;
60975;SDS011;46849;48.154;17.042;2022-11-09T10:57:29;38.47;;;21.17;;
60975;SDS011;46849;48.154;17.042;2022-11-09T11:00:32;44.60;;;21.77;;
60975;SDS011;46849;48.154;17.042;2022-11-09T11:03:36;38.85;;;20.90;;
60975;SDS011;46849;48.154;17.042;2022-11-09T11:06:41;37.90;;;21.45;;
60975;SDS011;46849;48.154;17.042;2022-11-09T11:09:44;37.00;;;20.23;;
60975;SDS011;46849;48.154;17.042;2022-11-09T11:15:59;40.60;;;21.02;;
60975;SDS011;46849;48.154;17.042;2022-11-09T11:19:03;36.05;;;19.02;;
60975;SDS011;46849;48.154;17.042;2022-11-09T11:22:07;35.70;;;18.33;;
60975;SDS011;46849;48.154;17.042;2022-11-09T11:25:18;33.17;;;18.50;;
60975;SDS011;46849;48.154;17.042;2022-11-09T11:28:28;34.40;;;18.75;;
60975;SDS011;46849;48.154;17.042;2022-11-09T11:31:37;44.10;;;19.88;;
60975;SDS011;46849;48.154;17.042;2022-11-09T11:34:41;37.20;;;18.90;;
60975;SDS011;46849;48.154;17.042;2022-11-09T11:37:48;37.70;;;18.77;;
60975;SDS011;46849;48.154;17.042;2022-11-09T11:47:51;31.67;;;17.85;;
60975;SDS011;46849;48.154;17.042;2022-11-09T11:51:10;31.92;;;18.30;;
60975;SDS011;46849;48.154;17.042;2022-11-09T12:01:11;38.65;;;20.35;;
60975;SDS011;46849;48.154;17.042;2022-11-09T12:04:30;34.58;;;19.42;;
60975;SDS011;46849;48.154;17.042;2022-11-09T12:11:14;42.33;;;22.65;;
60975;SDS011;46849;48.154;17.042;2022-11-09T12:14:31;38.85;;;21.77;;
60975;SDS011;46849;48.154;17.042;2022-11-09T12:18:11;35.30;;;20.45;;
60975;SDS011;46849;48.154;17.042;2022-11-09T12:37:34;36.78;;;20.80;;
60975;SDS011;46849;48.154;17.042;2022-11-09T12:40:49;35.10;;;19.92;;
60975;SDS011;46849;48.154;17.042;2022-11-09T12:43:59;38.63;;;20.20;;
60975;SDS011;46849;48.154;17.042;2022-11-09T12:47:09;38.92;;;20.30;;
60975;SDS011;46849;48.154;17.042;2022-11-09T12:50:18;35.95;;;20.42;;
60975;SDS011;46849;48.154;17.042;2022-11-09T12:53:27;38.05;;;19.73;;
60975;SDS011;46849;48.154;17.042;2022-11-09T12:56:39;37.30;;;20.13;;
60975;SDS011;46849;48.154;17.042;2022-11-09T13:02:53;32.67;;;18.52;;
60975;SDS011;46849;48.154;17.042;2022-11-09T13:09:22;35.33;;;18.48;;
60975;SDS011;46849;48.154;17.042;2022-11-09T13:12:35;34.42;;;17.92;;
60975;SDS011;46849;48.154;17.042;2022-11-09T13:19:47;35.58;;;18.90;;
60975;SDS011;46849;48.154;17.042;2022-11-09T13:32:25;31.58;;;17.08;;
60975;SDS011;46849;48.154;17.042;2022-11-09T13:38:44;34.28;;;19.30;;
60975;SDS011;46849;48.154;17.042;2022-11-09T13:41:48;31.42;;;18.38;;
60975;SDS011;46849;48.154;17.042;2022-11-09T13:44:52;31.38;;;18.35;;
60975;SDS011;46849;48.154;17.042;2022-11-09T13:47:56;33.22;;;17.85;;
60975;SDS011;46849;48.154;17.042;2022-11-09T13:51:01;33.13;;;17.10;;
60975;SDS011;46849;48.154;17.042;2022-11-09T13:54:26;31.50;;;16.50;;
60975;SDS011;46849;48.154;17.042;2022-11-09T13:57:30;32.10;;;16.00;;
60975;SDS011;46849;48.154;17.042;2022-11-09T14:00:34;32.40;;;16.33;;
60975;SDS011;46849;48.154;17.042;2022-11-09T14:03:38;28.13;;;16.55;;
60975;SDS011;46849;48.154;17.042;2022-11-09T14:06:42;34.72;;;16.83;;
60975;SDS011;46849;48.154;17.042;2022-11-09T14:16:55;28.77;;;16.55;;
60975;SDS011;46849;48.154;17.042;2022-11-09T14:20:16;35.58;;;16.95;;
60975;SDS011;46849;48.154;17.042;2022-11-09T14:23:23;34.67;;;17.80;;
60975;SDS011;46849;48.154;17.042;2022-11-09T14:26:30;37.20;;;18.83;;
60975;SDS011;46849;48.154;17.042;2022-11-09T14:29:34;33.28;;;17.52;;
60975;SDS011;46849;48.154;17.042;2022-11-09T14:32:39;34.97;;;18.40;;
60975;SDS011;46849;48.154;17.042;2022-11-09T14:35:42;31.15;;;16.63;;
60975;SDS011;46849;48.154;17.042;2022-11-09T14:38:46;31.63;;;17.48;;
60975;SDS011;46849;48.154;17.042;2022-11-09T14:41:49;31.67;;;16.42;;
60975;SDS011;46849;48.154;17.042;2022-11-09T14:44:54;31.85;;;16.52;;
60975;SDS011;46849;48.154;17.042;2022-11-09T14:47:58;31.38;;;16.85;;
60975;SDS011;46849;48.154;17.042;2022-11-09T14:51:02;36.42;;;18.52;;
60975;SDS011;46849;48.154;17.042;2022-11-09T14:54:09;31.88;;;17.42;;
60975;SDS011;46849;48.154;17.042;2022-11-09T14:57:15;30.95;;;16.35;;
60975;SDS011;46849;48.154;17.042;2022-11-09T17:48:35;43.17;;;20.80;;
60975;SDS011;46849;48.154;17.042;2022-11-09T17:51:40;41.35;;;18.40;;
60975;SDS011;46849;48.154;17.042;2022-11-09T17:54:43;40.08;;;18.08;;
60975;SDS011;46849;48.154;17.042;2022-11-09T17:57:46;38.58;;;18.35;;
60975;SDS011;46849;48.154;17.042;2022-11-09T18:00:50;39.60;;;19.25;;
60975;SDS011;46849;48.154;17.042;2022-11-09T18:03:54;40.28;;;18.50;;
60975;SDS011;46849;48.154;17.042;2022-11-09T18:06:58;38.70;;;18.77;;
60975;SDS011;46849;48.154;17.042;2022-11-09T18:10:03;36.05;;;17.92;;
60975;SDS011;46849;48.154;17.042;2022-11-09T18:13:07;44.67;;;19.92;;
60975;SDS011;46849;48.154;17.042;2022-11-09T18:16:11;39.80;;;18.67;;
60975;SDS011;46849;48.154;17.042;2022-11-09T18:19:16;43.67;;;19.98;;
60975;SDS011;46849;48.154;17.042;2022-11-09T18:22:19;41.90;;;19.15;;
60975;SDS011;46849;48.154;17.042;2022-11-09T18:25:23;42.03;;;19.90;;
60975;SDS011;46849;48.154;17.042;2022-11-09T18:28:26;44.42;;;18.83;;
60975;SDS011;46849;48.154;17.042;2022-11-09T18:31:29;41.05;;;19.48;;
60975;SDS011;46849;48.154;17.042;2022-11-09T18:34:33;38.85;;;17.63;;
60975;SDS011;46849;48.154;17.042;2022-11-09T18:37:39;43.15;;;18.13;;
60975;SDS011;46849;48.154;17.042;2022-11-09T18:40:43;38.95;;;19.27;;
60975;SDS011;46849;48.154;17.042;2022-11-09T18:43:48;42.55;;;20.10;;
60975;SDS011;46849;48.154;17.042;2022-11-09T18:46:52;41.35;;;19.77;;
60975;SDS011;46849;48.154;17.042;2022-11-09T18:49:56;45.60;;;20.40;;
60975;SDS011;46849;48.154;17.042;2022-11-09T18:52:59;39.72;;;19.20;;
60975;SDS011;46849;48.154;17.042;2022-11-09T18:56:03;51.55;;;22.33;;
60975;SDS011;46849;48.154;17.042;2022-11-09T18:59:10;46.30;;;20.20;;
60975;SDS011;46849;48.154;17.042;2022-11-09T19:02:17;46.67;;;20.20;;
60975;SDS011;46849;48.154;17.042;2022-11-09T19:05:20;43.70;;;20.88;;
60975;SDS011;46849;48.154;17.042;2022-11-09T19:08:23;45.05;;;20.30;;
60975;SDS011;46849;48.154;17.042;2022-11-09T19:11:46;46.03;;;20.02;;
60975;SDS011;46849;48.154;17.042;2022-11-09T19:14:50;47.97;;;21.48;;
60975;SDS011;46849;48.154;17.042;2022-11-09T19:17:54;44.85;;;20.60;;
60975;SDS011;46849;48.154;17.042;2022-11-09T19:21:00;43.58;;;20.42;;
60975;SDS011;46849;48.154;17.042;2022-11-09T19:24:04;36.05;;;18.10;;
60975;SDS011;46849;48.154;17.042;2022-11-09T19:27:10;35.42;;;17.38;;
60975;SDS011;46849;48.154;17.042;2022-11-09T19:30:13;45.70;;;20.05;;
60975;SDS011;46849;48.154;17.042;2022-11-09T19:33:17;44.47;;;19.58;;
60975;SDS011;46849;48.154;17.042;2022-11-09T19:36:22;32.33;;;16.52;;
60975;SDS011;46849;48.154;17.042;2022-11-09T19:39:28;42.17;;;20.13;;
60975;SDS011;46849;48.154;17.042;2022-11-09T19:42:31;35.63;;;15.95;;
60975;SDS011;46849;48.154;17.042;2022-11-09T19:45:38;31.85;;;15.35;;
60975;SDS011;46849;48.154;17.042;2022-11-09T19:48:43;36.42;;;16.42;;
60975;SDS011;46849;48.154;17.042;2022-11-09T19:51:47;43.83;;;20.63;;
60975;SDS011;46849;48.154;17.042;2022-11-09T19:54:50;39.47;;;19.02;;
60975;SDS011;46849;48.154;17.042;2022-11-09T19:57:54;32.15;;;16.45;;
60975;SDS011;46849;48.154;17.042;2022-11-09T20:01:07;31.67;;;17.77;;
60975;SDS011;46849;48.154;17.042;2022-11-09T20:04:13;37.92;;;19.15;;
60975;SDS011;46849;48.154;17.042;2022-11-09T20:07:17;38.15;;;18.08;;
60975;SDS011;46849;48.154;17.042;2022-11-09T20:10:23;36.10;;;17.65;;
60975;SDS011;46849;48.154;17.042;2022-11-09T20:13:26;37.10;;;19.25;;
60975;SDS011;46849;48.154;17.042;2022-11-09T20:16:30;41.97;;;19.75;;
60975;SDS011;46849;48.154;17.042;2022-11-09T20:19:34;41.17;;;19.45;;
60975;SDS011;46849;48.154;17.042;2022-11-09T20:22:38;34.13;;;18.05;;
60975;SDS011;46849;48.154;17.042;2022-11-09T20:25:41;35.45;;;16.98;;
60975;SDS011;46849;48.154;17.042;2022-11-09T20:28:44;41.72;;;19.77;;
60975;SDS011;46849;48.154;17.042;2022-11-09T20:31:50;48.42;;;22.55;;
60975;SDS011;46849;48.154;17.042;2022-11-09T20:34:54;48.50;;;22.33;;
60975;SDS011;46849;48.154;17.042;2022-11-09T20:37:57;42.13;;;20.73;;
60975;SDS011;46849;48.154;17.042;2022-11-09T20:41:05;41.25;;;20.95;;
60975;SDS011;46849;48.154;17.042;2022-11-09T20:44:10;45.88;;;22.95;;
60975;SDS011;46849;48.154;17.042;2022-11-09T20:47:13;31.90;;;16.92;;
60975;SDS011;46849;48.154;17.042;2022-11-09T20:50:19;41.45;;;20.40;;
60975;SDS011;46849;48.154;17.042;2022-11-09T20:53:23;44.60;;;22.90;;
60975;SDS011;46849;48.154;17.042;2022-11-09T20:56:28;37.08;;;19.15;;
60975;SDS011;46849;48.154;17.042;2022-11-09T20:59:32;36.28;;;18.33;;